Time;durP1;ratioP1;P1;durP2;ratioP2;P2;SDS_P1;SDS_P2;PMS_P1;PMS_P2;Temp;Humidity;BMP_temperature;BMP_pressure;BME280_temperature;BME280_humidity;BME280_pressure;Samples;Min_cycle;Max_cycle;Signal;HPM_P1;HPM_P2
2021/11/04 00:00:46;;;;;;;32.07;20.10;;;9.00;98.30;;;;;;5176716;22;20430;-81
2021/11/04 00:02:49;;;;;;;35.50;20.60;;;9.10;98.30;;;;;;5176943;22;20500;-80
2021/11/04 00:04:53;;;;;;;45.33;26.90;;;9.20;98.30;;;;;;5177488;22;20446;-81
2021/11/04 00:06:56;;;;;;;53.20;33.70;;;9.20;98.30;;;;;;5168884;22;20730;-80
2021/11/04 00:08:59;;;;;;;32.80;20.27;;;9.20;98.30;;;;;;5168226;22;20450;-81
2021/11/04 00:11:02;;;;;;;30.57;20.43;;;9.30;98.30;;;;;;5175661;22;20919;-81
2021/11/04 00:13:05;;;;;;;35.27;23.50;;;9.30;98.30;;;;;;5166454;22;20430;-81
2021/11/04 00:15:09;;;;;;;32.77;20.27;;;9.20;98.30;;;;;;5175071;22;20442;-81
2021/11/04 00:17:12;;;;;;;30.00;19.90;;;9.20;98.30;;;;;;5177779;22;20423;-80
2021/11/04 00:19:15;;;;;;;30.30;18.93;;;9.10;98.30;;;;;;5170954;22;20448;-81
2021/11/04 00:21:19;;;;;;;30.13;19.43;;;9.10;98.30;;;;;;5176163;22;20415;-81
2021/11/04 00:23:23;;;;;;;31.70;23.60;;;9.00;98.30;;;;;;5167375;23;20442;-81
2021/11/04 00:25:25;;;;;;;31.97;20.40;;;9.00;98.30;;;;;;5167341;23;20436;-81
2021/11/04 00:27:28;;;;;;;28.63;18.77;;;9.00;98.30;;;;;;5167569;22;20977;-81
2021/11/04 00:29:31;;;;;;;37.03;22.10;;;8.90;98.30;;;;;;5167381;22;21028;-81
2021/11/04 00:31:35;;;;;;;32.43;21.20;;;9.00;98.30;;;;;;5175959;23;20426;-81
2021/11/04 00:33:38;;;;;;;31.70;19.90;;;8.90;98.30;;;;;;5176373;22;20426;-81
2021/11/04 00:35:41;;;;;;;31.30;19.83;;;8.90;98.30;;;;;;5175925;22;20529;-81
2021/11/04 00:37:46;;;;;;;30.97;19.50;;;8.90;98.30;;;;;;5177588;22;20484;-81
2021/11/04 00:39:49;;;;;;;30.70;20.53;;;9.00;98.30;;;;;;5176056;22;21025;-80
2021/11/04 00:41:52;;;;;;;32.10;20.87;;;9.00;98.30;;;;;;5176711;22;20430;-81
2021/11/04 00:43:58;;;;;;;32.57;20.10;;;9.00;98.30;;;;;;5177879;22;20419;-81
2021/11/04 00:46:01;;;;;;;32.30;21.17;;;9.00;98.30;;;;;;5177084;23;20433;-81
2021/11/04 00:48:04;;;;;;;35.00;21.47;;;9.00;98.30;;;;;;5180375;22;20953;-81
2021/11/04 00:50:08;;;;;;;30.60;19.40;;;9.00;98.30;;;;;;5177772;22;20448;-81
2021/11/04 00:52:11;;;;;;;30.33;20.50;;;9.00;98.30;;;;;;5178217;22;20429;-80
2021/11/04 00:54:15;;;;;;;28.77;19.03;;;9.00;98.30;;;;;;5179027;22;21078;-81
2021/11/04 00:56:18;;;;;;;34.40;20.50;;;9.00;98.30;;;;;;5178030;22;20790;-81
2021/11/04 00:58:21;;;;;;;31.53;19.37;;;9.00;98.30;;;;;;5177624;22;20428;-81
2021/11/04 01:00:24;;;;;;;31.73;21.57;;;9.00;98.30;;;;;;5178693;22;20425;-81
2021/11/04 01:02:27;;;;;;;31.83;20.07;;;9.00;98.30;;;;;;5180155;22;20485;-81
2021/11/04 01:04:30;;;;;;;34.80;20.70;;;9.00;98.30;;;;;;5179784;22;20797;-81
2021/11/04 01:06:33;;;;;;;29.30;19.73;;;8.90;98.30;;;;;;5180611;22;20417;-81
2021/11/04 01:08:36;;;;;;;30.33;19.50;;;9.00;98.30;;;;;;5178661;22;20475;-81
2021/11/04 01:10:41;;;;;;;31.30;21.27;;;8.90;98.30;;;;;;5178981;23;20759;-81
2021/11/04 01:12:44;;;;;;;29.17;20.10;;;9.00;98.30;;;;;;5178594;22;20421;-81
2021/11/04 01:14:47;;;;;;;33.83;21.90;;;8.90;98.30;;;;;;5182213;22;20433;-80
2021/11/04 01:16:50;;;;;;;28.40;18.07;;;8.90;98.30;;;;;;5181640;22;20467;-80
2021/11/04 01:18:53;;;;;;;37.03;21.63;;;9.00;98.30;;;;;;5170036;22;20453;-81
2021/11/04 01:20:56;;;;;;;35.40;25.47;;;9.00;98.30;;;;;;5179403;22;20429;-81
2021/11/04 01:22:59;;;;;;;31.00;21.33;;;8.90;98.30;;;;;;5186340;22;20444;-81
2021/11/04 01:25:02;;;;;;;29.37;19.87;;;8.90;98.30;;;;;;5180581;22;20433;-81
2021/11/04 01:27:07;;;;;;;31.30;20.40;;;8.90;98.30;;;;;;5181024;22;20419;-81
2021/11/04 01:29:10;;;;;;;31.47;21.67;;;8.90;98.30;;;;;;5180133;22;20471;-80
2021/11/04 01:31:13;;;;;;;32.10;20.10;;;8.90;98.30;;;;;;5178956;22;20468;-80
2021/11/04 01:33:16;;;;;;;33.40;21.40;;;8.90;98.30;;;;;;5177981;22;20420;-79
2021/11/04 01:35:19;;;;;;;57.73;35.33;;;8.90;98.30;;;;;;5178753;22;20510;-80
2021/11/04 01:37:22;;;;;;;55.00;33.03;;;8.90;98.30;;;;;;5178689;22;20429;-81
2021/11/04 01:39:25;;;;;;;40.00;23.83;;;9.10;98.30;;;;;;5181096;22;20445;-81
2021/11/04 01:41:53;;;;;;;33.53;20.37;;;9.10;98.30;;;;;;5172414;23;20405;-81
2021/11/04 01:43:58;;;;;;;37.83;22.90;;;9.00;98.30;;;;;;5180828;22;20495;-81
2021/11/04 01:46:01;;;;;;;32.87;22.03;;;9.00;98.30;;;;;;5181276;22;20421;-81
2021/11/04 01:48:04;;;;;;;35.03;20.07;;;9.00;98.30;;;;;;5181703;22;20832;-80
2021/11/04 01:50:08;;;;;;;31.03;20.73;;;8.90;98.30;;;;;;5181305;22;20449;-81
2021/11/04 01:52:12;;;;;;;29.63;20.60;;;8.90;98.30;;;;;;5182550;22;20511;-81
2021/11/04 01:54:15;;;;;;;33.70;21.80;;;8.90;98.30;;;;;;5182555;22;20421;-81
2021/11/04 01:56:19;;;;;;;35.90;21.50;;;8.90;98.30;;;;;;5181463;23;20509;-81
2021/11/04 01:58:22;;;;;;;32.33;19.73;;;8.90;98.30;;;;;;5181841;22;20494;-81
2021/11/04 02:00:30;;;;;;;29.70;19.77;;;8.90;98.30;;;;;;5182239;22;20920;-80
2021/11/04 02:02:41;;;;;;;31.40;20.80;;;8.90;98.30;;;;;;5182181;23;20423;-81
2021/11/04 02:04:48;;;;;;;33.73;20.53;;;8.90;98.30;;;;;;5180269;23;20820;-81
2021/11/04 02:06:56;;;;;;;34.27;19.37;;;8.90;98.30;;;;;;5180801;23;20463;-81
2021/11/04 02:09:05;;;;;;;30.87;19.87;;;8.90;98.30;;;;;;5170696;22;20455;-80
2021/11/04 02:11:11;;;;;;;33.00;21.90;;;8.90;98.30;;;;;;5178785;22;20428;-81
2021/11/04 02:13:18;;;;;;;32.83;21.77;;;8.90;98.30;;;;;;5179307;22;20883;-81
2021/11/04 02:15:26;;;;;;;33.10;20.17;;;8.90;98.30;;;;;;5171373;23;20508;-81
2021/11/04 02:17:32;;;;;;;25.70;16.80;;;8.90;98.30;;;;;;5172900;22;20460;-82
2021/11/04 02:19:40;;;;;;;37.40;21.60;;;8.90;98.30;;;;;;5175267;22;20484;-81
2021/11/04 02:21:52;;;;;;;29.27;19.60;;;8.90;98.30;;;;;;5174879;23;20453;-82
2021/11/04 02:24:04;;;;;;;29.70;18.20;;;8.90;98.30;;;;;;5184147;23;20402;-82
2021/11/04 02:26:11;;;;;;;39.13;21.30;;;8.80;98.30;;;;;;5177716;22;20431;-82
2021/11/04 02:28:19;;;;;;;37.30;25.40;;;8.80;98.30;;;;;;5168734;22;20902;-81
2021/11/04 02:30:24;;;;;;;29.70;20.93;;;8.80;98.30;;;;;;5178839;22;20443;-80
2021/11/04 02:32:28;;;;;;;32.80;19.40;;;8.80;98.30;;;;;;5170152;23;20508;-81
2021/11/04 02:34:31;;;;;;;34.73;24.03;;;8.80;98.30;;;;;;5171610;22;20428;-81
2021/11/04 02:36:34;;;;;;;36.07;21.77;;;8.70;98.30;;;;;;5180555;22;21124;-81
2021/11/04 02:38:38;;;;;;;34.70;22.50;;;8.70;98.30;;;;;;5170914;22;20453;-81
2021/11/04 02:40:41;;;;;;;36.97;22.00;;;8.70;98.30;;;;;;5172359;22;20434;-81
2021/11/04 02:42:46;;;;;;;37.60;21.43;;;8.70;98.30;;;;;;5179923;22;20488;-81
2021/11/04 02:44:49;;;;;;;35.17;21.30;;;8.70;98.30;;;;;;5179058;22;20819;-81
2021/11/04 02:46:52;;;;;;;37.90;22.83;;;8.60;98.30;;;;;;5171209;22;20833;-81
2021/11/04 02:48:55;;;;;;;33.70;23.13;;;8.60;98.30;;;;;;5171035;22;20449;-81
2021/11/04 02:50:58;;;;;;;37.77;25.10;;;8.60;98.30;;;;;;5178613;23;20428;-81
2021/11/04 02:53:01;;;;;;;39.17;26.37;;;8.60;98.30;;;;;;5177028;22;20512;-81
2021/11/04 02:55:06;;;;;;;38.03;27.60;;;8.60;98.30;;;;;;5169124;22;20433;-81
2021/11/04 02:57:09;;;;;;;36.07;22.50;;;8.70;98.30;;;;;;5168523;22;20440;-81
2021/11/04 02:59:15;;;;;;;38.73;27.10;;;8.70;98.30;;;;;;5178020;22;20440;-80
2021/11/04 03:01:18;;;;;;;36.97;23.10;;;8.70;98.30;;;;;;5170955;23;20439;-80
2021/11/04 03:03:21;;;;;;;37.03;23.30;;;8.60;98.30;;;;;;5170602;22;20720;-81
2021/11/04 03:05:24;;;;;;;34.40;24.97;;;8.60;98.30;;;;;;5170662;22;20424;-81
2021/11/04 03:07:27;;;;;;;40.23;24.73;;;8.60;98.30;;;;;;5169705;22;20428;-81
2021/11/04 03:09:29;;;;;;;36.90;27.87;;;8.60;98.30;;;;;;5178691;22;20443;-81
2021/11/04 03:11:33;;;;;;;35.83;22.10;;;8.70;98.30;;;;;;5170155;23;20480;-81
2021/11/04 03:13:36;;;;;;;37.50;28.03;;;8.60;98.30;;;;;;5169771;23;20436;-81
2021/11/04 03:15:44;;;;;;;33.40;22.83;;;8.60;98.30;;;;;;5179241;22;20890;-81
2021/11/04 03:17:48;;;;;;;34.40;21.33;;;8.60;98.30;;;;;;5178820;22;20445;-81
2021/11/04 03:19:51;;;;;;;32.67;20.30;;;8.70;98.30;;;;;;5170807;22;20511;-81
2021/11/04 03:21:56;;;;;;;37.23;25.50;;;8.70;98.30;;;;;;5179260;22;20537;-80
2021/11/04 03:23:59;;;;;;;39.10;27.57;;;8.60;98.30;;;;;;5170767;22;20512;-81
2021/11/04 03:26:03;;;;;;;38.17;26.83;;;8.70;98.30;;;;;;5179165;22;20511;-81
2021/11/04 03:28:07;;;;;;;37.13;24.50;;;8.70;98.30;;;;;;5178876;22;20397;-80
2021/11/04 03:30:12;;;;;;;43.00;27.00;;;8.70;98.30;;;;;;5183795;22;20440;-80
2021/11/04 03:32:19;;;;;;;39.03;22.60;;;8.70;98.30;;;;;;5182372;23;20401;-80
2021/11/04 03:34:24;;;;;;;35.33;25.80;;;8.70;98.30;;;;;;5179815;23;20431;-81
2021/11/04 03:36:27;;;;;;;41.27;22.23;;;8.60;98.30;;;;;;5171557;22;20428;-81
2021/11/04 03:38:32;;;;;;;34.30;21.73;;;8.60;98.30;;;;;;5171883;22;20926;-81
2021/11/04 03:40:35;;;;;;;37.33;23.30;;;8.60;98.30;;;;;;5182382;22;20502;-81
2021/11/04 03:42:40;;;;;;;36.63;25.67;;;8.60;98.30;;;;;;5172967;22;20732;-81
2021/11/04 03:44:44;;;;;;;35.90;26.53;;;8.60;98.30;;;;;;5182225;22;20495;-81
2021/11/04 03:46:48;;;;;;;36.30;26.27;;;8.60;98.30;;;;;;5173483;22;20460;-81
2021/11/04 03:48:53;;;;;;;40.37;25.20;;;8.70;98.30;;;;;;5173860;22;20451;-81
2021/11/04 03:50:57;;;;;;;39.40;21.77;;;8.70;98.30;;;;;;5173310;22;20914;-81
2021/11/04 03:53:00;;;;;;;38.33;25.60;;;8.70;98.30;;;;;;5172811;22;20941;-81
2021/11/04 03:55:04;;;;;;;35.20;21.80;;;8.70;98.30;;;;;;5180952;22;20429;-81
2021/11/04 03:57:07;;;;;;;34.67;24.43;;;8.70;98.30;;;;;;5171509;23;20483;-81
2021/11/04 03:59:10;;;;;;;40.60;25.87;;;8.60;98.30;;;;;;5169710;22;20511;-81
2021/11/04 04:01:13;;;;;;;35.97;22.30;;;8.60;98.30;;;;;;5179475;22;20494;-81
2021/11/04 04:05:36;;;;;;;36.60;27.70;;;8.50;98.30;;;;;;5190088;22;20498;-83
2021/11/04 04:07:40;;;;;;;39.00;27.90;;;8.60;98.30;;;;;;5199111;22;20455;-82
2021/11/04 04:09:44;;;;;;;43.47;23.10;;;8.60;98.30;;;;;;5199201;22;20468;-81
2021/11/04 04:11:47;;;;;;;37.53;25.67;;;8.70;98.30;;;;;;5199058;22;20424;-82
2021/11/04 04:13:50;;;;;;;42.83;29.40;;;8.60;98.30;;;;;;5200247;22;20530;-81
2021/11/04 04:15:53;;;;;;;37.30;26.10;;;8.60;98.30;;;;;;5200761;22;20419;-81
2021/11/04 04:17:56;;;;;;;33.77;24.70;;;8.60;98.30;;;;;;5203037;22;20955;-82
2021/11/04 04:19:59;;;;;;;33.47;22.30;;;8.60;98.30;;;;;;5202881;22;20412;-83
2021/11/04 04:22:05;;;;;;;35.33;20.40;;;8.50;98.30;;;;;;5203027;22;20422;-83
2021/11/04 04:24:08;;;;;;;35.93;24.63;;;8.50;98.30;;;;;;5203553;22;20438;-82
2021/11/04 04:26:11;;;;;;;36.03;22.50;;;8.60;98.30;;;;;;5203575;22;20447;-83
2021/11/04 04:28:14;;;;;;;36.57;22.47;;;8.50;98.30;;;;;;5194344;22;20447;-83
2021/11/04 04:30:17;;;;;;;30.83;22.60;;;8.50;98.30;;;;;;5204277;22;20446;-83
2021/11/04 04:32:20;;;;;;;35.50;19.63;;;8.50;98.30;;;;;;5204639;22;20423;-83
2021/11/04 04:34:24;;;;;;;30.53;19.93;;;8.60;98.30;;;;;;5204059;22;20504;-83
2021/11/04 04:36:27;;;;;;;36.60;21.77;;;8.60;98.30;;;;;;5204519;22;20526;-84
2021/11/04 04:38:31;;;;;;;33.47;22.10;;;8.60;98.30;;;;;;5201122;22;20565;-83
2021/11/04 04:40:34;;;;;;;33.90;20.00;;;8.60;98.30;;;;;;5199579;22;20427;-85
2021/11/04 04:42:38;;;;;;;34.53;22.10;;;8.60;98.30;;;;;;5199773;22;20418;-85
2021/11/04 04:44:41;;;;;;;35.63;19.30;;;8.60;98.30;;;;;;5199961;22;20782;-86
2021/11/04 04:46:44;;;;;;;33.17;20.57;;;8.60;98.30;;;;;;5192141;22;20431;-85
2021/11/04 04:48:47;;;;;;;32.20;21.00;;;8.60;98.30;;;;;;5200513;22;20422;-85
2021/11/04 04:50:49;;;;;;;33.10;24.47;;;8.60;98.30;;;;;;5200581;22;20895;-85
2021/11/04 04:52:52;;;;;;;31.70;19.40;;;8.60;98.30;;;;;;5191416;22;20434;-85
2021/11/04 04:54:57;;;;;;;29.17;19.10;;;8.60;98.30;;;;;;5199574;22;20530;-85
2021/11/04 04:57:00;;;;;;;30.43;19.17;;;8.60;98.30;;;;;;5199559;22;20435;-85
2021/11/04 04:59:03;;;;;;;31.90;22.13;;;8.60;98.30;;;;;;5191768;22;20443;-85
2021/11/04 05:01:06;;;;;;;30.60;18.77;;;8.70;98.30;;;;;;5199733;22;20428;-85
2021/11/04 05:03:09;;;;;;;28.40;20.60;;;8.70;98.30;;;;;;5191674;22;20511;-85
2021/11/04 05:05:13;;;;;;;31.90;21.10;;;8.80;98.30;;;;;;5199828;22;20431;-86
2021/11/04 05:07:17;;;;;;;33.47;22.80;;;8.70;98.30;;;;;;5199205;22;20419;-85
2021/11/04 05:09:20;;;;;;;28.67;17.67;;;8.70;98.30;;;;;;5199635;22;20423;-84
2021/11/04 05:11:24;;;;;;;32.03;22.40;;;8.70;98.30;;;;;;5191535;22;20503;-85
2021/11/04 05:13:28;;;;;;;31.20;20.77;;;8.70;98.30;;;;;;5191413;22;20431;-85
2021/11/04 05:15:30;;;;;;;36.57;19.63;;;8.70;98.30;;;;;;5199267;22;20510;-85
2021/11/04 05:17:34;;;;;;;28.83;19.40;;;8.70;98.30;;;;;;5199324;22;20427;-86
2021/11/04 05:19:37;;;;;;;36.27;22.53;;;8.80;98.30;;;;;;5199284;22;20434;-85
2021/11/04 05:21:41;;;;;;;55.37;31.37;;;8.90;98.30;;;;;;5199798;22;20516;-84
2021/11/04 05:23:44;;;;;;;31.30;20.33;;;9.00;98.30;;;;;;5199274;22;20470;-85
2021/11/04 05:25:47;;;;;;;26.50;18.73;;;9.00;98.30;;;;;;5199790;22;20452;-86
2021/11/04 05:27:51;;;;;;;33.47;20.10;;;9.00;98.30;;;;;;5200094;22;20447;-86
2021/11/04 05:29:54;;;;;;;28.20;18.00;;;8.90;98.30;;;;;;5199873;22;21006;-85
2021/11/04 05:31:57;;;;;;;28.47;19.00;;;8.90;98.30;;;;;;5200766;22;20432;-86
2021/11/04 05:34:01;;;;;;;32.13;19.20;;;8.90;98.30;;;;;;5201170;22;20449;-86
2021/11/04 05:36:04;;;;;;;29.50;19.10;;;9.00;98.30;;;;;;5200702;22;20424;-86
2021/11/04 05:38:08;;;;;;;27.97;17.90;;;9.00;98.30;;;;;;5200254;22;20481;-87
2021/11/04 05:40:12;;;;;;;30.50;18.90;;;9.00;98.30;;;;;;5199914;22;20512;-86
2021/11/04 05:42:15;;;;;;;30.10;18.53;;;9.00;98.30;;;;;;5199722;22;20768;-86
2021/11/04 05:44:19;;;;;;;29.40;18.07;;;9.10;98.30;;;;;;5199781;22;20469;-86
2021/11/04 05:46:22;;;;;;;26.50;18.63;;;9.10;98.30;;;;;;5200266;22;20500;-86
2021/11/04 05:48:25;;;;;;;31.20;18.77;;;9.10;98.30;;;;;;5199583;22;20421;-86
2021/11/04 05:50:28;;;;;;;28.00;18.50;;;9.10;98.30;;;;;;5200296;22;20432;-86
2021/11/04 05:52:31;;;;;;;26.47;18.40;;;9.10;98.30;;;;;;5200427;22;20456;-86
2021/11/04 05:54:34;;;;;;;29.43;19.50;;;9.10;98.30;;;;;;5200962;22;20536;-86
2021/11/04 05:56:37;;;;;;;33.70;18.70;;;9.00;98.30;;;;;;5201434;22;20452;-86
2021/11/04 05:58:40;;;;;;;33.50;19.40;;;9.00;98.30;;;;;;5201117;22;20515;-86
2021/11/04 06:00:45;;;;;;;25.77;17.80;;;9.00;98.30;;;;;;5200919;22;20432;-85
2021/11/04 06:02:48;;;;;;;29.10;19.00;;;9.00;98.30;;;;;;5200405;22;21125;-85
2021/11/04 06:04:51;;;;;;;27.70;18.60;;;8.90;98.30;;;;;;5200638;22;20457;-84
2021/11/04 06:06:54;;;;;;;32.70;19.47;;;8.90;98.30;;;;;;5201577;22;20482;-84
2021/11/04 06:08:57;;;;;;;32.70;22.97;;;9.00;98.30;;;;;;5201147;22;20472;-84
2021/11/04 06:11:00;;;;;;;30.20;19.83;;;9.00;98.30;;;;;;5192555;22;20474;-84
2021/11/04 06:13:04;;;;;;;32.37;20.07;;;9.00;98.30;;;;;;5201984;22;20742;-84
2021/11/04 06:15:08;;;;;;;28.10;17.87;;;9.00;98.30;;;;;;5193107;22;20453;-83
2021/11/04 06:17:12;;;;;;;29.70;18.27;;;9.00;98.30;;;;;;5192678;22;20508;-84
2021/11/04 06:19:15;;;;;;;32.40;20.37;;;9.00;98.30;;;;;;5201479;22;21020;-84
2021/11/04 06:21:18;;;;;;;31.73;19.70;;;9.00;98.30;;;;;;5201782;22;20422;-84
2021/11/04 06:23:21;;;;;;;31.90;18.80;;;9.00;98.30;;;;;;5201750;22;20448;-84
2021/11/04 06:25:24;;;;;;;34.87;20.30;;;9.00;98.30;;;;;;5201602;22;20463;-84
2021/11/04 06:27:27;;;;;;;31.23;22.00;;;8.90;98.30;;;;;;5201384;22;20428;-84
2021/11/04 06:29:30;;;;;;;29.30;18.80;;;8.90;98.30;;;;;;5203386;22;20656;-84
2021/11/04 06:31:34;;;;;;;26.80;18.13;;;8.90;98.30;;;;;;5203413;22;20800;-84
2021/11/04 06:33:38;;;;;;;29.97;17.97;;;8.90;98.30;;;;;;5203346;22;20469;-84
2021/11/04 06:35:45;;;;;;;30.90;18.83;;;8.90;98.30;;;;;;5203970;22;20941;-84
2021/11/04 06:37:48;;;;;;;28.37;19.10;;;8.90;98.30;;;;;;5202493;22;20440;-84
2021/11/04 06:39:51;;;;;;;31.97;21.10;;;8.90;98.30;;;;;;5202838;22;20451;-84
2021/11/04 06:41:54;;;;;;;31.13;20.27;;;8.90;98.30;;;;;;5202922;22;20433;-85
2021/11/04 06:43:57;;;;;;;29.87;18.47;;;8.90;98.30;;;;;;5203522;22;20466;-84
2021/11/04 06:46:02;;;;;;;32.10;19.90;;;8.90;98.30;;;;;;5204487;22;20420;-84
2021/11/04 06:48:08;;;;;;;33.13;21.13;;;8.80;98.30;;;;;;5204473;22;20778;-84
2021/11/04 06:50:13;;;;;;;29.17;18.47;;;8.80;98.30;;;;;;5203865;22;20442;-84
2021/11/04 06:52:20;;;;;;;29.43;18.67;;;8.80;98.30;;;;;;5203580;22;20450;-85
2021/11/04 06:54:26;;;;;;;27.87;18.43;;;8.80;98.30;;;;;;5195248;22;20518;-84
2021/11/04 06:56:38;;;;;;;30.33;19.47;;;8.80;98.30;;;;;;5203504;22;20415;-84
2021/11/04 06:58:47;;;;;;;30.43;19.30;;;8.90;98.30;;;;;;5203732;22;20927;-84
2021/11/04 07:00:53;;;;;;;25.30;16.83;;;8.90;98.30;;;;;;5195768;22;20415;-84
2021/11/04 07:03:06;;;;;;;25.73;17.23;;;8.90;98.30;;;;;;5204214;22;20972;-84
2021/11/04 07:06:00;;;;;;;26.37;17.40;;;8.90;98.30;;;;;;5203884;22;20443;-84
2021/11/04 07:08:04;;;;;;;28.10;18.23;;;9.00;98.30;;;;;;5203942;22;20503;-84
2021/11/04 07:10:07;;;;;;;26.57;19.87;;;9.00;98.30;;;;;;5195126;22;20449;-84
2021/11/04 07:12:12;;;;;;;29.30;18.37;;;8.90;98.30;;;;;;5203591;22;20516;-84
2021/11/04 07:14:16;;;;;;;24.17;16.60;;;8.90;98.30;;;;;;5203547;22;20989;-84
2021/11/04 07:16:21;;;;;;;24.17;15.60;;;8.90;98.30;;;;;;5195352;22;20999;-84
2021/11/04 07:18:25;;;;;;;24.67;15.53;;;8.90;98.30;;;;;;5202888;22;20825;-84
2021/11/04 07:20:28;;;;;;;22.13;15.13;;;8.80;98.30;;;;;;5203697;22;20445;-84
2021/11/04 07:22:38;;;;;;;26.30;16.53;;;8.80;98.30;;;;;;5195251;22;20436;-84
2021/11/04 07:24:46;;;;;;;23.53;14.00;;;8.80;98.30;;;;;;5194905;22;20551;-84
2021/11/04 07:26:55;;;;;;;22.60;13.43;;;8.80;98.30;;;;;;5203458;22;20491;-84
2021/11/04 07:29:00;;;;;;;23.93;14.60;;;8.90;98.30;;;;;;5203023;22;20705;-84
2021/11/04 07:31:04;;;;;;;26.33;14.37;;;8.90;98.30;;;;;;5194458;22;21014;-84
2021/11/04 07:33:08;;;;;;;20.77;13.57;;;8.90;98.30;;;;;;5202675;22;20452;-84
2021/11/04 07:35:10;;;;;;;23.03;13.93;;;8.90;98.30;;;;;;5203591;22;20922;-84
2021/11/04 07:37:14;;;;;;;33.83;19.27;;;8.90;98.30;;;;;;5194920;22;20486;-84
2021/11/04 07:39:18;;;;;;;57.20;34.07;;;9.00;98.30;;;;;;5202973;22;20522;-84
2021/11/04 07:41:22;;;;;;;97.13;51.27;;;9.10;98.30;;;;;;5203275;22;20430;-84
2021/11/04 07:43:28;;;;;;;33.50;20.93;;;9.20;98.30;;;;;;5203774;22;20498;-84
2021/11/04 07:45:33;;;;;;;27.47;17.77;;;9.10;98.30;;;;;;5203612;22;20458;-84
2021/11/04 07:47:37;;;;;;;23.43;14.40;;;9.20;98.30;;;;;;5202825;22;20462;-84
2021/11/04 07:49:40;;;;;;;25.97;14.40;;;9.20;98.30;;;;;;5203781;22;20443;-84
2021/11/04 07:51:44;;;;;;;23.70;18.07;;;9.20;98.30;;;;;;5203597;22;20431;-84
2021/11/04 07:53:47;;;;;;;40.23;24.00;;;9.10;98.30;;;;;;5202507;22;20782;-84
2021/11/04 07:55:54;;;;;;;45.33;25.57;;;9.10;98.30;;;;;;5202203;22;20532;-84
2021/11/04 07:57:57;;;;;;;44.97;26.37;;;9.20;98.30;;;;;;5202835;22;20424;-84
2021/11/04 08:00:03;;;;;;;75.13;42.97;;;9.40;98.30;;;;;;5194165;22;20449;-84
2021/11/04 08:02:06;;;;;;;26.70;14.90;;;9.60;98.30;;;;;;5203628;22;20439;-84
2021/11/04 08:04:09;;;;;;;25.87;15.87;;;9.40;98.30;;;;;;5194177;22;20477;-84
2021/11/04 08:06:12;;;;;;;23.10;14.00;;;9.30;98.30;;;;;;5193854;22;20439;-84
2021/11/04 08:08:15;;;;;;;21.10;14.47;;;9.20;98.30;;;;;;5193653;22;20461;-84
2021/11/04 08:10:19;;;;;;;22.50;13.30;;;9.20;98.30;;;;;;5202345;22;20903;-84
2021/11/04 08:12:24;;;;;;;21.07;13.90;;;9.10;98.30;;;;;;5203601;22;20504;-84
2021/11/04 08:14:27;;;;;;;19.10;13.13;;;9.10;98.30;;;;;;5204189;22;20433;-84
2021/11/04 08:16:30;;;;;;;21.67;13.60;;;9.10;98.30;;;;;;5204089;22;20505;-84
2021/11/04 08:18:34;;;;;;;23.27;14.57;;;9.10;98.30;;;;;;5203930;22;20423;-84
2021/11/04 08:20:38;;;;;;;19.93;13.90;;;9.00;98.30;;;;;;5202472;22;20441;-84
2021/11/04 08:22:41;;;;;;;22.90;15.53;;;9.10;98.30;;;;;;5202976;22;20454;-84
2021/11/04 08:24:44;;;;;;;21.13;13.70;;;9.10;98.30;;;;;;5195367;22;21018;-84
2021/11/04 08:26:47;;;;;;;19.60;13.63;;;9.10;98.30;;;;;;5202568;22;20425;-84
2021/11/04 08:28:52;;;;;;;22.17;14.43;;;9.10;98.30;;;;;;5203280;22;20418;-84
2021/11/04 08:30:55;;;;;;;26.10;15.27;;;9.20;98.30;;;;;;5195146;22;20901;-84
2021/11/04 08:32:58;;;;;;;22.57;14.07;;;9.20;98.30;;;;;;5203519;22;20529;-84
2021/11/04 08:35:01;;;;;;;18.53;12.77;;;9.20;98.30;;;;;;5202830;22;20457;-84
2021/11/04 08:37:04;;;;;;;22.03;14.20;;;9.20;98.30;;;;;;5204433;22;20748;-84
2021/11/04 08:39:07;;;;;;;23.07;14.63;;;9.20;98.30;;;;;;5195729;22;20509;-84
2021/11/04 08:41:10;;;;;;;21.73;14.47;;;9.20;98.30;;;;;;5204729;22;20444;-84
2021/11/04 08:43:13;;;;;;;21.40;13.73;;;9.20;98.30;;;;;;5196065;22;20826;-84
2021/11/04 08:45:19;;;;;;;20.67;13.77;;;9.20;98.30;;;;;;5204194;22;20964;-84
2021/11/04 08:47:22;;;;;;;19.63;12.73;;;9.20;98.30;;;;;;5196795;22;20501;-84
2021/11/04 08:49:25;;;;;;;28.60;17.87;;;9.20;98.30;;;;;;5203612;22;20425;-84
2021/11/04 08:51:28;;;;;;;44.00;26.80;;;9.30;98.30;;;;;;5201958;22;20816;-84
2021/11/04 08:53:31;;;;;;;56.07;37.60;;;9.50;98.30;;;;;;5201348;22;20529;-84
2021/11/04 08:55:34;;;;;;;23.63;15.87;;;9.70;98.30;;;;;;5202263;22;20450;-84
2021/11/04 08:57:38;;;;;;;17.70;12.50;;;9.70;98.30;;;;;;5201384;22;20427;-84
2021/11/04 08:59:42;;;;;;;17.97;12.13;;;9.60;98.30;;;;;;5201992;22;20449;-85
2021/11/04 09:01:50;;;;;;;20.23;11.43;;;9.50;98.30;;;;;;5201946;22;20450;-84
2021/11/04 09:03:54;;;;;;;21.70;12.67;;;9.50;98.30;;;;;;5201972;22;20442;-84
2021/11/04 09:05:57;;;;;;;14.03;10.63;;;9.50;98.30;;;;;;5194918;22;20440;-84
2021/11/04 09:08:00;;;;;;;15.60;11.57;;;9.50;98.30;;;;;;5203618;22;20529;-84
2021/11/04 09:10:04;;;;;;;16.50;10.90;;;9.50;98.30;;;;;;5203517;22;20493;-84
2021/11/04 09:12:07;;;;;;;15.77;10.50;;;9.50;98.30;;;;;;5194661;22;20989;-84
2021/11/04 09:14:11;;;;;;;15.10;10.20;;;9.50;98.30;;;;;;5204501;22;20439;-84
2021/11/04 09:16:14;;;;;;;15.63;10.37;;;9.50;98.30;;;;;;5194654;22;20461;-84
2021/11/04 09:18:18;;;;;;;16.53;10.50;;;9.50;98.30;;;;;;5195547;22;20441;-84
2021/11/04 09:20:21;;;;;;;16.10;10.50;;;9.50;98.30;;;;;;5194034;22;20756;-84
2021/11/04 09:22:25;;;;;;;16.33;10.23;;;9.50;98.30;;;;;;5202738;22;20470;-85
2021/11/04 09:24:29;;;;;;;17.57;11.07;;;9.60;98.30;;;;;;5202637;22;20474;-84
2021/11/04 09:26:32;;;;;;;15.27;9.80;;;9.60;98.30;;;;;;5193962;22;20999;-84
2021/11/04 09:28:35;;;;;;;14.20;10.20;;;9.60;98.30;;;;;;5202155;22;20511;-84
2021/11/04 09:30:38;;;;;;;20.00;13.40;;;9.70;98.30;;;;;;5194293;22;20423;-84
2021/11/04 09:32:42;;;;;;;73.73;40.40;;;9.70;98.30;;;;;;5193484;22;20529;-84
2021/11/04 09:34:46;;;;;;;88.43;48.47;;;9.70;98.30;;;;;;5202610;22;20443;-84
2021/11/04 09:36:50;;;;;;;42.27;25.67;;;9.80;98.30;;;;;;5202837;22;20853;-84
2021/11/04 09:38:53;;;;;;;21.07;13.77;;;9.80;98.30;;;;;;5202894;22;20420;-84
2021/11/04 09:40:56;;;;;;;18.53;10.80;;;9.80;98.30;;;;;;5202392;22;20497;-84
2021/11/04 09:43:00;;;;;;;14.30;10.17;;;9.80;98.30;;;;;;5194075;22;20427;-85
2021/11/04 09:45:05;;;;;;;14.67;9.60;;;9.80;98.30;;;;;;5202982;22;20528;-84
2021/11/04 09:47:08;;;;;;;14.77;10.27;;;9.80;98.30;;;;;;5194291;22;20427;-84
2021/11/04 09:49:11;;;;;;;14.53;10.30;;;9.80;98.30;;;;;;5203244;22;20433;-84
2021/11/04 09:51:15;;;;;;;13.53;9.93;;;9.80;98.30;;;;;;5203612;22;20443;-84
2021/11/04 09:53:18;;;;;;;17.70;11.97;;;9.80;98.30;;;;;;5202280;22;20529;-84
2021/11/04 09:55:24;;;;;;;14.27;9.73;;;9.80;98.30;;;;;;5194849;22;20453;-84
2021/11/04 09:57:28;;;;;;;16.43;10.80;;;9.80;98.30;;;;;;5201643;22;20419;-84
2021/11/04 09:59:31;;;;;;;23.67;11.77;;;9.80;98.30;;;;;;5191765;22;20427;-84
2021/11/04 10:01:35;;;;;;;15.00;11.40;;;9.90;98.30;;;;;;5192070;22;21066;-84
2021/11/04 10:03:38;;;;;;;13.50;10.20;;;9.90;98.30;;;;;;5201199;22;20447;-85
2021/11/04 10:05:45;;;;;;;15.80;11.07;;;9.90;98.30;;;;;;5201959;22;20494;-85
2021/11/04 10:07:51;;;;;;;20.43;12.07;;;9.90;98.30;;;;;;5201124;22;20429;-85
2021/11/04 10:10:02;;;;;;;15.80;10.20;;;9.90;98.30;;;;;;5201496;22;20899;-85
2021/11/04 10:12:06;;;;;;;15.20;10.40;;;10.00;98.30;;;;;;5193421;22;20450;-85
2021/11/04 10:14:12;;;;;;;18.30;12.50;;;10.00;98.30;;;;;;5192816;22;20443;-84
2021/11/04 10:16:16;;;;;;;22.43;12.07;;;10.00;98.30;;;;;;5201815;22;20940;-84
2021/11/04 10:18:39;;;;;;;17.27;11.60;;;9.90;98.30;;;;;;5201108;22;20434;-85
2021/11/04 10:20:43;;;;;;;15.50;11.17;;;10.00;98.30;;;;;;5201586;22;20425;-85
2021/11/04 10:23:01;;;;;;;21.83;12.47;;;10.00;98.30;;;;;;5201692;22;20934;-85
2021/11/04 10:25:04;;;;;;;20.53;12.90;;;10.10;98.30;;;;;;5193495;22;20536;-85
2021/11/04 10:27:07;;;;;;;17.80;12.73;;;10.10;98.30;;;;;;5202031;22;20415;-85
2021/11/04 10:29:12;;;;;;;19.07;12.37;;;10.10;98.30;;;;;;5201658;22;20454;-85
2021/11/04 10:31:16;;;;;;;17.33;12.30;;;10.00;98.30;;;;;;5202268;22;20415;-85
2021/11/04 10:33:25;;;;;;;16.70;12.10;;;10.00;98.30;;;;;;5202583;22;20423;-85
2021/11/04 10:35:32;;;;;;;18.20;12.77;;;10.00;98.30;;;;;;5201666;22;20490;-85
2021/11/04 10:37:51;;;;;;;16.90;12.10;;;10.00;98.30;;;;;;5202178;22;20411;-85
2021/11/04 10:40:06;;;;;;;18.87;13.77;;;10.00;98.30;;;;;;5202560;22;20503;-85